createdAt,value
2023-10-03T00:00:11.379Z,97478.72
2023-10-03T00:02:37.907Z,97476.31
2023-10-03T00:05:04.443Z,97485.28
2023-10-03T00:07:30.898Z,97488.50
2023-10-03T00:09:57.357Z,97491.25
2023-10-03T00:12:23.850Z,97485.31
2023-10-03T00:14:50.373Z,97489.09
2023-10-03T00:17:16.841Z,97495.84
2023-10-03T00:19:43.389Z,97498.28
2023-10-03T00:22:09.878Z,97483.41
2023-10-03T00:24:36.360Z,97491.78
2023-10-03T00:27:02.847Z,97483.41
2023-10-03T00:29:29.352Z,97492.63
2023-10-03T00:31:55.853Z,97479.91
2023-10-03T00:34:22.308Z,97475.31
2023-10-03T00:36:48.787Z,97483.44
2023-10-03T00:39:15.249Z,97476.97
2023-10-03T00:41:41.927Z,97482.38
2023-10-03T00:44:08.534Z,97482.66
2023-10-03T00:46:35.038Z,97477.78
2023-10-03T00:49:01.723Z,97472.38
2023-10-03T00:51:28.388Z,97477.50
2023-10-03T00:53:55.018Z,97481.28
2023-10-03T00:56:21.502Z,97475.09
2023-10-03T00:58:47.961Z,97473.72
2023-10-03T01:01:15.811Z,97467.28
2023-10-03T01:03:42.668Z,97474.81
2023-10-03T01:06:09.327Z,97478.59
2023-10-03T01:08:35.837Z,97478.31
2023-10-03T01:11:02.390Z,97471.25
2023-10-03T01:13:28.848Z,97472.06
2023-10-03T01:15:55.342Z,97468.34
2023-10-03T01:18:22.026Z,97468.06
2023-10-03T01:20:48.664Z,97459.66
2023-10-03T01:23:15.321Z,97458.59
2023-10-03T01:25:41.815Z,97468.06
2023-10-03T01:28:08.286Z,97465.09
2023-10-03T01:30:37.806Z,97458.34
2023-10-03T01:33:04.382Z,97461.31
2023-10-03T01:35:30.942Z,97464.28
2023-10-03T01:37:57.541Z,97458.38
2023-10-03T01:40:23.985Z,97458.59
2023-10-03T01:42:50.439Z,97444.59
2023-10-03T01:45:16.909Z,97451.59
2023-10-03T01:47:43.558Z,97444.88
2023-10-03T01:50:10.330Z,97441.88
2023-10-03T01:52:36.942Z,97441.59
2023-10-03T01:55:03.438Z,97444.28
2023-10-03T01:57:29.964Z,97433.72
2023-10-03T01:59:56.511Z,97440.16
2023-10-03T02:02:23.060Z,97431.84
2023-10-03T02:04:49.555Z,97420.00
2023-10-03T02:07:16.027Z,97429.44
2023-10-03T02:09:42.482Z,97433.22
2023-10-03T02:12:08.970Z,97431.59
2023-10-03T02:14:35.444Z,97433.22
2023-10-03T02:17:01.939Z,97426.75
2023-10-03T02:19:28.528Z,97425.41
2023-10-03T02:21:55.060Z,97421.88
2023-10-03T02:24:21.580Z,97423.78
2023-10-03T02:26:48.041Z,97422.91
2023-10-03T02:29:14.565Z,97414.59
2023-10-03T02:31:41.071Z,97417.53
2023-10-03T02:34:07.613Z,97411.03
2023-10-03T02:36:34.119Z,97403.50
2023-10-03T02:39:00.948Z,97406.75
2023-10-03T02:41:27.633Z,97413.47
2023-10-03T02:43:54.094Z,97406.97
2023-10-03T02:46:20.817Z,97402.41
2023-10-03T02:48:47.307Z,97401.06
2023-10-03T02:51:13.780Z,97402.72
2023-10-03T02:53:40.331Z,97400.31
2023-10-03T02:56:06.861Z,97398.16
2023-10-03T02:58:33.350Z,97396.25
2023-10-03T03:00:59.917Z,97390.28
2023-10-03T03:03:26.491Z,97391.41
2023-10-03T03:05:53.048Z,97390.03
2023-10-03T03:08:19.655Z,97390.28
2023-10-03T03:10:46.370Z,97394.31
2023-10-03T03:13:12.836Z,97397.59
2023-10-03T03:15:39.343Z,97394.63
2023-10-03T03:18:05.958Z,97401.59
2023-10-03T03:20:32.641Z,97396.41
2023-10-03T03:22:59.158Z,97401.81
2023-10-03T03:25:25.626Z,97402.41
2023-10-03T03:27:52.074Z,97395.53
2023-10-03T03:30:18.548Z,97398.47
2023-10-03T03:32:45.101Z,97400.03
2023-10-03T03:35:11.661Z,97400.72
2023-10-03T03:37:38.153Z,97395.91
2023-10-03T03:40:04.644Z,97398.81
2023-10-03T03:42:31.103Z,97393.03
2023-10-03T03:44:57.598Z,97389.41
2023-10-03T03:47:24.089Z,97398.19
2023-10-03T03:49:50.728Z,97389.66
2023-10-03T03:52:17.359Z,97385.97
2023-10-03T03:54:43.835Z,97386.63
2023-10-03T03:57:10.363Z,97389.41
2023-10-03T03:59:37.013Z,97385.91
2023-10-03T04:02:03.551Z,97391.63
2023-10-03T04:04:30.094Z,97392.56
2023-10-03T04:06:56.602Z,97393.94
2023-10-03T04:09:23.042Z,97395.50
2023-10-03T04:11:49.777Z,97394.13
2023-10-03T04:14:16.348Z,97391.06
2023-10-03T04:16:42.886Z,97392.97
2023-10-03T04:19:09.868Z,97385.91
2023-10-03T04:21:36.822Z,97388.06
2023-10-03T04:24:03.375Z,97392.28
2023-10-03T04:26:31.519Z,97394.34
2023-10-03T04:28:58.041Z,97394.06
2023-10-03T04:31:24.544Z,97404.19
2023-10-03T04:33:51.113Z,97390.16
2023-10-03T04:36:17.674Z,97397.53
2023-10-03T04:38:44.440Z,97404.84
2023-10-03T04:41:11.142Z,97398.50
2023-10-03T04:43:37.823Z,97398.34
2023-10-03T04:46:04.411Z,97395.66
2023-10-03T04:48:31.100Z,97395.59
2023-10-03T04:50:57.715Z,97404.09
2023-10-03T04:53:24.276Z,97405.94
2023-10-03T04:55:50.823Z,97411.94
2023-10-03T04:58:17.568Z,97404.72
2023-10-03T05:00:44.246Z,97401.22
2023-10-03T05:03:11.180Z,97421.00
2023-10-03T05:05:40.911Z,97412.34
2023-10-03T05:08:09.663Z,97423.41
2023-10-03T05:10:37.792Z,97424.34
2023-10-03T05:13:04.310Z,97423.25
2023-10-03T05:15:30.794Z,97417.84
2023-10-03T05:17:57.364Z,97423.81
2023-10-03T05:20:23.971Z,97405.47
2023-10-03T05:22:50.460Z,97409.78
2023-10-03T05:25:16.928Z,97408.50
2023-10-03T05:27:43.454Z,97408.31
2023-10-03T05:30:10.079Z,97421.69
2023-10-03T05:32:36.709Z,97435.38
2023-10-03T05:35:03.198Z,97432.34
2023-10-03T05:37:29.814Z,97425.53
2023-10-03T05:39:56.292Z,97425.78
2023-10-03T05:42:22.780Z,97433.81
2023-10-03T05:44:49.403Z,97440.91
2023-10-03T05:47:15.873Z,97433.97
2023-10-03T05:49:42.353Z,97437.56
2023-10-03T05:52:08.780Z,97441.28
2023-10-03T05:54:35.353Z,97441.53
2023-10-03T05:57:01.852Z,97435.06
2023-10-03T05:59:28.588Z,97439.34
2023-10-03T06:01:55.121Z,97433.19
2023-10-03T06:04:21.629Z,97429.25
2023-10-03T06:06:48.116Z,97438.97
2023-10-03T06:09:14.716Z,97446.94
2023-10-03T06:11:41.340Z,97446.28
2023-10-03T06:14:07.844Z,97438.38
2023-10-03T06:16:34.302Z,97458.66
2023-10-03T06:19:00.943Z,97455.00
2023-10-03T06:21:27.765Z,97459.13
2023-10-03T06:23:54.394Z,97461.91
2023-10-03T06:26:20.887Z,97461.75
2023-10-03T06:28:47.414Z,97464.69
2023-10-03T06:31:13.904Z,97468.22
2023-10-03T06:33:42.509Z,97466.88
2023-10-03T06:36:10.502Z,97470.88
2023-10-03T06:38:37.064Z,97477.25
2023-10-03T06:41:03.579Z,97479.75
2023-10-03T06:43:30.042Z,97475.56
2023-10-03T06:45:56.725Z,97489.66
2023-10-03T06:48:23.294Z,97490.22
2023-10-03T06:50:49.893Z,97487.44
2023-10-03T06:53:16.329Z,97493.72
2023-10-03T06:55:42.853Z,97493.63
2023-10-03T06:58:09.544Z,97488.50
2023-10-03T07:00:36.006Z,97487.34
2023-10-03T07:03:02.657Z,97490.84
2023-10-03T07:05:29.256Z,97494.31
2023-10-03T07:07:55.829Z,97496.09
2023-10-03T07:10:22.329Z,97495.56
2023-10-03T07:12:48.799Z,97495.84
2023-10-03T07:15:15.247Z,97493.06
2023-10-03T07:17:41.932Z,97502.00
2023-10-03T07:20:08.443Z,97502.06
2023-10-03T07:22:35.010Z,97507.75
2023-10-03T07:25:01.600Z,97510.72
2023-10-03T07:27:28.108Z,97519.38
2023-10-03T07:29:54.603Z,97521.25
2023-10-03T07:32:21.280Z,97528.00
2023-10-03T07:34:47.865Z,97521.25
2023-10-03T07:37:14.584Z,97519.63
2023-10-03T07:39:41.254Z,97518.25
2023-10-03T07:42:07.915Z,97516.94
2023-10-03T07:44:34.502Z,97529.91
2023-10-03T07:47:01.127Z,97526.38
2023-10-03T07:49:27.599Z,97520.69
2023-10-03T07:51:54.092Z,97526.13
2023-10-03T07:54:20.598Z,97528.00
2023-10-03T07:56:47.149Z,97522.03
2023-10-03T07:59:13.613Z,97529.88
2023-10-03T08:01:53.218Z,97531.16
2023-10-03T08:04:26.653Z,97542.50
2023-10-03T08:06:53.265Z,97530.22
2023-10-03T08:09:19.821Z,97530.94
2023-10-03T08:11:46.327Z,97530.28
2023-10-03T08:14:12.980Z,97538.06
2023-10-03T08:16:39.659Z,97537.78
2023-10-03T08:19:06.318Z,97534.03
2023-10-03T08:21:32.764Z,97526.00
2023-10-03T08:23:59.372Z,97531.59
2023-10-03T08:26:25.885Z,97529.00
2023-10-03T08:28:52.565Z,97532.88
2023-10-03T08:31:19.031Z,97527.28
2023-10-03T08:33:45.567Z,97531.94
2023-10-03T08:36:12.108Z,97535.25
2023-10-03T08:38:38.604Z,97543.34
2023-10-03T08:41:05.096Z,97542.88
2023-10-03T08:43:31.575Z,97548.22
2023-10-03T08:45:58.178Z,97539.03
2023-10-03T08:48:24.874Z,97549.00
2023-10-03T08:50:51.754Z,97552.25
2023-10-03T08:53:18.644Z,97554.75
2023-10-03T08:55:45.214Z,97558.81
2023-10-03T08:58:11.739Z,97562.03
2023-10-03T09:00:38.218Z,97564.41
2023-10-03T09:03:04.797Z,97559.81
2023-10-03T09:05:32.594Z,97572.53
2023-10-03T09:07:59.102Z,97567.50
2023-10-03T09:10:25.582Z,97569.53
2023-10-03T09:12:52.058Z,97560.78
2023-10-03T09:15:18.567Z,97571.31
2023-10-03T09:17:45.088Z,97565.94
2023-10-03T09:20:11.713Z,97561.25
2023-10-03T09:22:38.180Z,97559.00
2023-10-03T09:25:04.661Z,97557.81
2023-10-03T09:27:31.161Z,97562.41
2023-10-03T09:29:57.656Z,97564.69
2023-10-03T09:32:24.127Z,97563.16
2023-10-03T09:34:50.685Z,97569.97
2023-10-03T09:37:17.122Z,97563.72
2023-10-03T09:39:43.653Z,97564.34
2023-10-03T09:42:10.196Z,97566.56
2023-10-03T09:44:36.715Z,97568.47
2023-10-03T09:47:03.200Z,97565.09
2023-10-03T09:49:29.677Z,97565.53
2023-10-03T09:51:56.237Z,97561.28
2023-10-03T09:54:22.728Z,97560.75
2023-10-03T09:56:49.287Z,97557.84
2023-10-03T09:59:16.960Z,97562.66
2023-10-03T10:01:43.930Z,97558.25
2023-10-03T10:04:10.630Z,97560.09
2023-10-03T10:06:37.333Z,97568.38
2023-10-03T10:09:04.033Z,97554.75
2023-10-03T10:11:30.754Z,97563.66
2023-10-03T10:13:57.414Z,97562.75
2023-10-03T10:16:23.973Z,97560.50
2023-10-03T10:18:50.663Z,97562.75
2023-10-03T10:21:17.275Z,97574.91
2023-10-03T10:23:43.787Z,97580.22
2023-10-03T10:26:10.242Z,97570.47
2023-10-03T10:28:36.684Z,97569.25
2023-10-03T10:31:03.194Z,97572.81
2023-10-03T10:33:29.763Z,97565.03
2023-10-03T10:35:56.541Z,97576.66
2023-10-03T10:38:23.205Z,97575.75
2023-10-03T10:40:49.702Z,97579.78
2023-10-03T10:43:16.339Z,97574.81
2023-10-03T10:45:42.945Z,97561.22
2023-10-03T10:48:09.513Z,97564.75
2023-10-03T10:50:36.204Z,97566.16
2023-10-03T10:53:02.669Z,97562.44
2023-10-03T10:55:29.136Z,97560.63
2023-10-03T10:57:55.590Z,97557.59
2023-10-03T11:00:22.326Z,97558.50
2023-10-03T11:02:49.110Z,97569.41
2023-10-03T11:05:15.738Z,97565.94
2023-10-03T11:07:42.223Z,97558.19
2023-10-03T11:10:23.421Z,97554.28
2023-10-03T11:12:55.132Z,97553.53
2023-10-03T11:15:21.740Z,97546.69
2023-10-03T11:17:48.281Z,97547.59
2023-10-03T11:20:14.796Z,97545.28
2023-10-03T11:22:41.319Z,97543.03
2023-10-03T11:25:07.756Z,97542.66
2023-10-03T11:27:34.202Z,97540.72
2023-10-03T11:30:00.794Z,97540.13
2023-10-03T11:32:27.382Z,97531.00
2023-10-03T11:34:53.950Z,97532.41
2023-10-03T11:37:20.395Z,97523.16
2023-10-03T11:39:46.964Z,97530.84
2023-10-03T11:42:13.584Z,97524.56
2023-10-03T11:44:40.080Z,97521.31
2023-10-03T11:47:06.625Z,97525.09
2023-10-03T11:49:33.158Z,97532.41
2023-10-03T11:51:59.884Z,97529.28
2023-10-03T11:54:26.415Z,97531.25
2023-10-03T11:56:52.851Z,97533.78
2023-10-03T11:59:19.320Z,97539.94
2023-10-03T12:01:45.742Z,97531.47
2023-10-03T12:04:12.507Z,97521.94
2023-10-03T12:06:39.095Z,97524.06
2023-10-03T12:09:05.788Z,97521.47
2023-10-03T12:11:32.522Z,97528.28
2023-10-03T12:13:59.016Z,97522.03
2023-10-03T12:16:25.779Z,97516.38
2023-10-03T12:18:52.376Z,97513.03
2023-10-03T12:21:19.005Z,97514.31
2023-10-03T12:23:48.663Z,97514.66
2023-10-03T12:26:26.609Z,97517.50
2023-10-03T12:28:56.827Z,97523.94
2023-10-03T12:31:23.309Z,97530.56
2023-10-03T12:33:49.954Z,97531.06
2023-10-03T12:36:16.471Z,97523.72
2023-10-03T12:38:43.014Z,97539.53
2023-10-03T12:41:09.526Z,97542.16
2023-10-03T12:43:36.094Z,97545.97
2023-10-03T12:46:02.653Z,97550.22
2023-10-03T12:48:29.263Z,97556.09
2023-10-03T12:50:56.097Z,97556.47
2023-10-03T12:53:22.664Z,97559.16
2023-10-03T12:55:49.122Z,97573.31
2023-10-03T12:58:15.694Z,97568.69
2023-10-03T13:00:42.177Z,97574.75
2023-10-03T13:03:08.854Z,97563.94
2023-10-03T13:05:35.507Z,97575.72
2023-10-03T13:08:01.989Z,97581.13
2023-10-03T13:10:28.449Z,97576.72
2023-10-03T13:12:54.992Z,97581.09
2023-10-03T13:15:21.534Z,97577.84
2023-10-03T13:17:48.308Z,97582.97
2023-10-03T13:20:14.813Z,97572.94
2023-10-03T13:22:41.234Z,97578.22
2023-10-03T13:25:07.691Z,97580.13
2023-10-03T13:27:34.161Z,97580.88
2023-10-03T13:30:02.548Z,97582.50
2023-10-03T13:32:31.578Z,97579.47
2023-10-03T13:34:58.006Z,97568.66
2023-10-03T13:37:24.446Z,97576.28
2023-10-03T13:39:50.955Z,97584.19
2023-10-03T13:42:17.486Z,97583.00
2023-10-03T13:44:43.981Z,97580.00
2023-10-03T13:47:10.507Z,97588.88
2023-10-03T13:49:36.995Z,97594.13
2023-10-03T13:52:03.475Z,97591.09
2023-10-03T13:54:29.924Z,97599.09
2023-10-03T13:56:56.512Z,97594.44
2023-10-03T13:59:23.148Z,97601.44
2023-10-03T14:01:49.589Z,97592.72
2023-10-03T14:04:16.024Z,97598.00
2023-10-03T14:06:42.713Z,97605.63
2023-10-03T14:09:09.337Z,97600.44
2023-10-03T14:11:35.936Z,97599.63
2023-10-03T14:14:02.423Z,97612.28
2023-10-03T14:16:29.004Z,97608.88
2023-10-03T14:18:55.660Z,97611.25
2023-10-03T14:21:32.040Z,97613.94
2023-10-03T14:24:06.626Z,97612.06
2023-10-03T14:26:33.073Z,97616.09
2023-10-03T14:28:59.589Z,97616.56
2023-10-03T14:31:26.267Z,97621.78
2023-10-03T14:33:52.783Z,97620.03
2023-10-03T14:36:19.338Z,97614.72
2023-10-03T14:38:46.193Z,97625.31
2023-10-03T14:41:12.821Z,97624.63
2023-10-03T14:43:39.279Z,97626.78
2023-10-03T14:46:05.967Z,97621.84
2023-10-03T14:48:32.761Z,97618.13
2023-10-03T14:50:59.371Z,97619.66
2023-10-03T14:53:25.914Z,97631.31
2023-10-03T14:55:52.405Z,97634.69
2023-10-03T14:58:18.844Z,97636.13
2023-10-03T15:00:45.501Z,97644.38
2023-10-03T15:03:12.218Z,97649.13
2023-10-03T15:05:38.907Z,97647.69
2023-10-03T15:08:05.430Z,97643.19
2023-10-03T15:10:31.976Z,97654.47
2023-10-03T15:12:58.489Z,97653.25
2023-10-03T15:15:25.071Z,97653.47
2023-10-03T15:17:51.658Z,97655.72
2023-10-03T15:20:18.256Z,97664.13
2023-10-03T15:22:44.739Z,97651.69
2023-10-03T15:25:11.258Z,97654.78
2023-10-03T15:27:37.766Z,97657.72
2023-10-03T15:30:04.682Z,97666.22
2023-10-03T15:32:31.261Z,97668.69
2023-10-03T15:34:57.793Z,97666.44
2023-10-03T15:37:24.283Z,97678.38
2023-10-03T15:39:52.328Z,97687.50
2023-10-03T15:42:18.926Z,97693.72
2023-10-03T15:44:54.540Z,97704.50
2023-10-03T15:47:31.880Z,97703.53
2023-10-03T15:49:58.341Z,97706.88
2023-10-03T15:52:24.814Z,97699.19
2023-10-03T15:54:51.302Z,97705.41
2023-10-03T15:57:17.982Z,97694.03
2023-10-03T15:59:44.528Z,97704.66
2023-10-03T16:02:11.020Z,97699.31
2023-10-03T16:04:37.741Z,97707.34
2023-10-03T16:07:04.277Z,97712.38
2023-10-03T16:09:30.790Z,97712.03
2023-10-03T16:11:57.374Z,97728.56
2023-10-03T16:14:23.826Z,97715.94
2023-10-03T16:16:50.377Z,97708.25
2023-10-03T16:19:16.958Z,97717.88
2023-10-03T16:21:43.457Z,97714.59
2023-10-03T16:24:09.965Z,97712.41
2023-10-03T16:26:36.540Z,97718.88
2023-10-03T16:29:03.312Z,97711.06
2023-10-03T16:31:30.102Z,97707.41
2023-10-03T16:33:56.579Z,97713.28
2023-10-03T16:36:23.083Z,97714.44
2023-10-03T16:38:49.617Z,97712.81
2023-10-03T16:41:16.073Z,97716.06
2023-10-03T16:43:42.494Z,97724.31
2023-10-03T16:46:08.942Z,97730.66
2023-10-03T16:48:35.511Z,97723.00
2023-10-03T16:51:02.112Z,97728.44
2023-10-03T16:53:28.618Z,97734.81
2023-10-03T16:55:55.049Z,97736.34
2023-10-03T16:58:21.520Z,97740.50
2023-10-03T17:00:48.037Z,97745.69
2023-10-03T17:03:14.532Z,97752.22
2023-10-03T17:05:41.053Z,97765.06
2023-10-03T17:08:07.523Z,97759.38
2023-10-03T17:10:34.132Z,97758.31
2023-10-03T17:13:00.563Z,97759.91
2023-10-03T17:15:27.131Z,97764.44
2023-10-03T17:17:55.019Z,97763.81
2023-10-03T17:20:23.664Z,97757.34
2023-10-03T17:22:50.103Z,97752.50
2023-10-03T17:25:16.608Z,97760.19
2023-10-03T17:27:43.164Z,97768.56
2023-10-03T17:30:09.678Z,97773.31
2023-10-03T17:32:36.244Z,97775.00
2023-10-03T17:35:02.707Z,97782.09
2023-10-03T17:37:29.218Z,97780.94
2023-10-03T17:39:55.681Z,97785.28
2023-10-03T17:42:22.284Z,97791.38
2023-10-03T17:44:48.819Z,97807.66
2023-10-03T17:47:15.251Z,97808.22
2023-10-03T17:49:41.698Z,97800.09
2023-10-03T17:52:08.166Z,97798.66
2023-10-03T17:54:35.085Z,97803.44
2023-10-03T17:57:02.371Z,97804.19
2023-10-03T17:59:28.916Z,97815.03
2023-10-03T18:01:55.412Z,97826.88
2023-10-03T18:04:22.047Z,97825.91
2023-10-03T18:06:48.582Z,97832.69
2023-10-03T18:09:16.127Z,97831.59
2023-10-03T18:11:42.899Z,97834.19
2023-10-03T18:14:09.402Z,97828.06
2023-10-03T18:16:35.955Z,97825.94
2023-10-03T18:19:02.596Z,97843.16
2023-10-03T18:21:29.346Z,97841.47
2023-10-03T18:23:55.953Z,97854.41
2023-10-03T18:26:22.475Z,97850.94
2023-10-03T18:28:48.982Z,97858.78
2023-10-03T18:31:15.566Z,97860.91
2023-10-03T18:33:42.109Z,97866.38
2023-10-03T18:36:08.626Z,97874.59
2023-10-03T18:38:35.060Z,97875.22
2023-10-03T18:41:01.595Z,97872.59
2023-10-03T18:43:28.229Z,97874.22
2023-10-03T18:45:58.557Z,97883.69
2023-10-03T18:48:25.600Z,97885.59
2023-10-03T18:50:52.174Z,97887.97
2023-10-03T18:53:18.685Z,97897.44
2023-10-03T18:55:45.229Z,97901.25
2023-10-03T18:58:11.721Z,97909.34
2023-10-03T19:00:38.401Z,97901.84
2023-10-03T19:03:05.173Z,97901.53
2023-10-03T19:05:31.901Z,97913.75
2023-10-03T19:07:58.362Z,97924.69
2023-10-03T19:10:24.841Z,97924.78
2023-10-03T19:12:51.357Z,97927.09
2023-10-03T19:15:17.983Z,97933.25
2023-10-03T19:17:44.550Z,97926.50
2023-10-03T19:20:11.050Z,97934.91
2023-10-03T19:22:37.497Z,97935.19
2023-10-03T19:25:04.000Z,97936.31
2023-10-03T19:27:30.440Z,97941.19
2023-10-03T19:29:56.957Z,97936.84
2023-10-03T19:32:23.402Z,97920.25
2023-10-03T19:34:49.943Z,97922.13
2023-10-03T19:37:16.412Z,97931.97
2023-10-03T19:39:43.932Z,97934.13
2023-10-03T19:42:10.453Z,97930.53
2023-10-03T19:44:36.937Z,97937.56
2023-10-03T19:47:03.417Z,97941.13
2023-10-03T19:49:29.881Z,97945.47
2023-10-03T19:51:56.555Z,97945.25
2023-10-03T19:54:23.185Z,97950.75
2023-10-03T19:56:49.947Z,97955.13
2023-10-03T19:59:16.452Z,97948.09
2023-10-03T20:01:43.074Z,97952.25
2023-10-03T20:04:09.534Z,97959.06
2023-10-03T20:06:35.985Z,97965.06
2023-10-03T20:09:02.726Z,97965.56
2023-10-03T20:11:29.636Z,97966.91
2023-10-03T20:13:56.112Z,97966.13
2023-10-03T20:16:22.682Z,97967.19
2023-10-03T20:18:49.355Z,97970.44
2023-10-03T20:21:16.199Z,97972.88
2023-10-03T20:23:42.655Z,97959.59
2023-10-03T20:26:09.188Z,97970.44
2023-10-03T20:28:35.683Z,97961.25
2023-10-03T20:31:02.198Z,97973.97
2023-10-03T20:33:28.855Z,97969.97
2023-10-03T20:35:55.460Z,97966.44
2023-10-03T20:38:22.290Z,97972.66
2023-10-03T20:40:48.702Z,97978.09
2023-10-03T20:43:15.353Z,97982.38
2023-10-03T20:45:41.841Z,97978.56
2023-10-03T20:48:08.348Z,97983.19
2023-10-03T20:50:34.963Z,97986.47
2023-10-03T20:53:01.732Z,97989.97
2023-10-03T20:55:28.500Z,97988.34
2023-10-03T20:57:54.963Z,97998.88
2023-10-03T21:00:21.521Z,97998.59
2023-10-03T21:05:14.764Z,97999.13
2023-10-03T21:07:41.355Z,98006.19
2023-10-03T21:10:07.833Z,97998.06
2023-10-03T21:12:34.476Z,98001.03
2023-10-03T21:15:01.097Z,98000.25
2023-10-03T21:17:27.650Z,98000.75
2023-10-03T21:19:54.283Z,98000.22
2023-10-03T21:22:21.023Z,97995.88
2023-10-03T21:24:47.468Z,97999.13
2023-10-03T21:27:14.034Z,98004.25
2023-10-03T21:29:40.576Z,98000.47
2023-10-03T21:32:07.036Z,98000.19
2023-10-03T21:34:33.540Z,98002.00
2023-10-03T21:37:00.193Z,98001.00
2023-10-03T21:39:26.728Z,97999.63
2023-10-03T21:41:53.467Z,97996.69
2023-10-03T21:44:19.954Z,97997.59
2023-10-03T21:46:46.384Z,97996.31
2023-10-03T21:49:12.824Z,98003.09
2023-10-03T21:51:39.342Z,98004.38
2023-10-03T21:54:06.045Z,98002.25
2023-10-03T21:56:32.588Z,98007.84
2023-10-03T21:58:59.183Z,98003.94
2023-10-03T22:01:25.760Z,98006.31
2023-10-03T22:03:52.291Z,98005.69
2023-10-03T22:06:18.816Z,98010.84
2023-10-03T22:08:45.340Z,98003.69
2023-10-03T22:11:11.898Z,98001.81
2023-10-03T22:13:38.346Z,98002.06
2023-10-03T22:16:04.850Z,98008.81
2023-10-03T22:18:31.398Z,98011.38
2023-10-03T22:20:57.904Z,98001.63
2023-10-03T22:23:24.422Z,98001.66
2023-10-03T22:25:50.888Z,97992.38
2023-10-03T22:28:17.300Z,97997.31
2023-10-03T22:30:43.840Z,97999.19
2023-10-03T22:33:10.561Z,97999.97
2023-10-03T22:35:37.099Z,98007.03
2023-10-03T22:38:08.401Z,97996.50
2023-10-03T22:40:35.711Z,98002.44
2023-10-03T22:43:02.166Z,98005.25
2023-10-03T22:45:28.690Z,97995.81
2023-10-03T22:47:55.258Z,97996.88
2023-10-03T22:50:21.809Z,97988.25
2023-10-03T22:52:48.307Z,97996.63
2023-10-03T22:55:14.755Z,97990.63
2023-10-03T22:57:41.224Z,97998.22
2023-10-03T23:00:07.716Z,97997.66
2023-10-03T23:02:34.256Z,98001.69
2023-10-03T23:05:00.750Z,97995.13
2023-10-03T23:07:27.308Z,97996.56
2023-10-03T23:09:53.795Z,97994.84
2023-10-03T23:12:20.288Z,97997.03
2023-10-03T23:14:46.744Z,97996.19
2023-10-03T23:17:13.248Z,97991.28
2023-10-03T23:19:39.697Z,97997.00
2023-10-03T23:22:06.164Z,97997.72
2023-10-03T23:24:32.682Z,97999.06
2023-10-03T23:26:59.197Z,98000.31
2023-10-03T23:29:25.694Z,97997.41
2023-10-03T23:31:52.211Z,97996.16
2023-10-03T23:34:18.688Z,98002.88
2023-10-03T23:36:45.181Z,97993.63
2023-10-03T23:39:11.719Z,97997.38
2023-10-03T23:41:38.210Z,97999.59
2023-10-03T23:44:04.657Z,97994.66
2023-10-03T23:46:31.204Z,97998.16
2023-10-03T23:48:57.650Z,97994.44
2023-10-03T23:51:24.172Z,97993.84
2023-10-03T23:53:50.783Z,97994.94
2023-10-03T23:56:17.288Z,98001.38
2023-10-03T23:58:43.792Z,97998.63
